createdAt,value
2022-11-07T00:00:44.953Z,2.70
2022-11-07T00:01:42.822Z,2.80
2022-11-07T00:02:41.847Z,3.00
2022-11-07T00:03:41.791Z,2.70
2022-11-07T00:04:41.792Z,2.70
2022-11-07T00:05:41.768Z,2.90
2022-11-07T00:06:41.753Z,2.90
2022-11-07T00:07:41.726Z,2.60
2022-11-07T00:08:41.739Z,2.50
2022-11-07T00:09:41.715Z,2.60
2022-11-07T00:10:41.708Z,2.80
2022-11-07T00:11:41.717Z,2.70
2022-11-07T00:12:41.693Z,2.60
2022-11-07T00:13:41.663Z,2.70
2022-11-07T00:14:41.676Z,2.90
2022-11-07T00:15:41.658Z,2.90
2022-11-07T00:16:41.648Z,2.80
2022-11-07T00:17:41.647Z,2.80
2022-11-07T00:18:41.654Z,2.70
2022-11-07T00:19:41.602Z,3.10
2022-11-07T00:20:41.605Z,2.70
2022-11-07T00:21:41.570Z,2.60
2022-11-07T00:22:43.513Z,2.60
2022-11-07T00:23:41.715Z,2.90
2022-11-07T00:24:41.562Z,2.90
2022-11-07T00:25:41.525Z,2.80
2022-11-07T00:26:41.906Z,2.90
2022-11-07T00:27:41.560Z,2.70
2022-11-07T00:28:41.575Z,2.90
2022-11-07T00:29:41.566Z,3.20
2022-11-07T00:30:41.504Z,2.90
2022-11-07T00:31:41.521Z,2.60
2022-11-07T00:32:41.467Z,2.80
2022-11-07T00:33:41.463Z,3.00
2022-11-07T00:34:41.477Z,2.80
2022-11-07T00:35:41.416Z,2.70
2022-11-07T00:36:41.423Z,2.80
2022-11-07T00:37:41.416Z,2.90
2022-11-07T00:38:41.462Z,3.00
2022-11-07T00:39:42.140Z,2.80
2022-11-07T00:40:41.392Z,2.70
2022-11-07T00:41:41.373Z,2.80
2022-11-07T00:42:41.340Z,2.90
2022-11-07T00:43:41.356Z,2.70
2022-11-07T00:44:41.339Z,2.50
2022-11-07T00:45:41.322Z,2.70
2022-11-07T00:46:41.313Z,3.00
2022-11-07T00:47:41.303Z,2.70
2022-11-07T00:48:41.293Z,2.70
2022-11-07T00:49:41.270Z,2.80
2022-11-07T00:50:41.261Z,3.10
2022-11-07T00:51:41.247Z,3.00
2022-11-07T00:52:41.275Z,2.80
2022-11-07T00:53:41.228Z,3.00
2022-11-07T00:54:41.243Z,3.20
2022-11-07T00:55:41.243Z,3.00
2022-11-07T00:56:41.200Z,2.70
2022-11-07T00:57:41.233Z,3.10
2022-11-07T00:58:41.193Z,3.10
2022-11-07T00:59:41.173Z,3.60
2022-11-07T01:00:41.209Z,3.20
2022-11-07T01:01:41.230Z,3.10
2022-11-07T01:02:41.343Z,3.40
2022-11-07T01:03:41.119Z,3.40
2022-11-07T01:04:41.098Z,3.20
2022-11-07T01:05:41.104Z,2.90
2022-11-07T01:06:41.096Z,3.10
2022-11-07T01:07:41.074Z,3.60
2022-11-07T01:08:41.050Z,3.50
2022-11-07T01:09:41.048Z,3.20
2022-11-07T01:10:41.059Z,3.30
2022-11-07T01:11:41.019Z,3.60
2022-11-07T01:12:41.027Z,3.40
2022-11-07T01:13:41.015Z,2.90
2022-11-07T01:14:40.995Z,3.20
2022-11-07T01:15:41.003Z,3.30
2022-11-07T01:16:40.979Z,3.20
2022-11-07T01:17:40.964Z,3.00
2022-11-07T01:18:40.957Z,3.10
2022-11-07T01:19:40.950Z,3.30
2022-11-07T01:20:40.997Z,3.40
2022-11-07T01:21:40.928Z,3.10
2022-11-07T01:22:40.930Z,3.00
2022-11-07T01:23:40.889Z,3.20
2022-11-07T01:24:40.886Z,3.40
2022-11-07T01:25:40.895Z,3.10
2022-11-07T01:26:40.891Z,3.00
2022-11-07T01:27:40.888Z,3.30
2022-11-07T01:28:40.837Z,3.50
2022-11-07T01:29:40.844Z,3.20
2022-11-07T01:30:40.834Z,3.10
2022-11-07T01:31:40.824Z,3.20
2022-11-07T01:32:40.825Z,3.50
2022-11-07T01:33:40.800Z,3.30
2022-11-07T01:34:40.810Z,3.10
2022-11-07T01:35:40.748Z,3.30
2022-11-07T01:36:40.783Z,3.40
2022-11-07T01:37:40.843Z,3.50
2022-11-07T01:38:40.748Z,3.20
2022-11-07T01:39:40.715Z,3.10
2022-11-07T01:40:40.721Z,3.30
2022-11-07T01:41:40.694Z,3.60
2022-11-07T01:42:40.694Z,3.20
2022-11-07T01:43:40.687Z,3.20
2022-11-07T01:44:40.679Z,3.40
2022-11-07T01:45:40.657Z,3.60
2022-11-07T01:46:40.676Z,3.40
2022-11-07T01:47:40.612Z,3.20
2022-11-07T01:48:40.605Z,3.30
2022-11-07T01:49:40.629Z,3.30
2022-11-07T01:50:40.583Z,3.10
2022-11-07T01:51:40.573Z,3.10
2022-11-07T01:52:40.568Z,3.10
2022-11-07T01:53:40.556Z,3.60
2022-11-07T01:54:40.592Z,3.30
2022-11-07T01:55:40.523Z,3.00
2022-11-07T01:56:40.548Z,3.10
2022-11-07T01:57:40.547Z,3.50
2022-11-07T01:58:40.503Z,3.40
2022-11-07T01:59:40.482Z,3.00
2022-11-07T02:00:40.513Z,3.00
2022-11-07T02:01:40.568Z,3.20
2022-11-07T02:02:40.613Z,3.30
2022-11-07T02:03:40.442Z,2.90
2022-11-07T02:04:40.456Z,3.00
2022-11-07T02:05:40.424Z,3.20
2022-11-07T02:06:40.443Z,3.20
2022-11-07T02:07:40.392Z,3.00
2022-11-07T02:08:40.384Z,3.00
2022-11-07T02:09:40.404Z,3.20
2022-11-07T02:10:40.405Z,3.50
2022-11-07T02:11:40.352Z,3.10
2022-11-07T02:12:40.352Z,2.90
2022-11-07T02:13:40.340Z,3.00
2022-11-07T02:14:40.351Z,3.20
2022-11-07T02:15:40.315Z,3.20
2022-11-07T02:16:40.311Z,2.70
2022-11-07T02:17:40.306Z,2.80
2022-11-07T02:18:40.322Z,3.10
2022-11-07T02:19:40.284Z,3.00
2022-11-07T02:20:40.271Z,2.70
2022-11-07T02:21:40.249Z,2.90
2022-11-07T02:22:40.264Z,2.80
2022-11-07T02:23:40.222Z,2.90
2022-11-07T02:24:40.222Z,2.90
2022-11-07T02:25:40.203Z,2.70
2022-11-07T02:26:40.181Z,2.80
2022-11-07T02:27:40.214Z,2.80
2022-11-07T02:28:40.203Z,3.00
2022-11-07T02:29:40.173Z,2.70
2022-11-07T02:30:40.172Z,2.80
2022-11-07T02:31:40.172Z,3.00
2022-11-07T02:32:40.150Z,3.00
2022-11-07T02:33:40.153Z,2.80
2022-11-07T02:34:40.133Z,2.80
2022-11-07T02:35:40.117Z,3.00
2022-11-07T02:36:40.092Z,3.00
2022-11-07T02:37:40.093Z,2.80
2022-11-07T02:38:40.084Z,2.90
2022-11-07T02:39:40.069Z,3.20
2022-11-07T02:40:40.029Z,3.00
2022-11-07T02:41:40.018Z,2.60
2022-11-07T02:42:40.029Z,2.80
2022-11-07T02:43:40.012Z,3.10
2022-11-07T02:44:40.015Z,2.80
2022-11-07T02:45:39.988Z,2.70
2022-11-07T02:46:39.992Z,2.80
2022-11-07T02:47:39.955Z,2.90
2022-11-07T02:48:39.941Z,2.90
2022-11-07T02:49:39.963Z,2.60
2022-11-07T02:50:39.938Z,2.60
2022-11-07T02:51:39.916Z,2.90
2022-11-07T02:52:40.009Z,2.90
2022-11-07T02:53:39.879Z,2.50
2022-11-07T02:54:39.887Z,2.70
2022-11-07T02:55:39.885Z,2.80
2022-11-07T02:56:39.862Z,2.80
2022-11-07T02:57:39.840Z,2.60
2022-11-07T02:58:39.845Z,2.50
2022-11-07T02:59:39.852Z,2.80
2022-11-07T03:00:39.839Z,3.00
2022-11-07T03:01:39.981Z,2.80
2022-11-07T03:02:39.985Z,2.70
2022-11-07T03:03:39.776Z,2.90
2022-11-07T03:04:39.922Z,3.00
2022-11-07T03:05:39.771Z,2.70
2022-11-07T03:06:39.779Z,2.80
2022-11-07T03:07:39.741Z,2.80
2022-11-07T03:08:40.125Z,3.00
2022-11-07T03:09:39.756Z,2.60
2022-11-07T03:10:39.695Z,2.80
2022-11-07T03:11:39.689Z,2.90
2022-11-07T03:12:39.709Z,3.10
2022-11-07T03:13:39.667Z,2.90
2022-11-07T03:14:39.701Z,2.80
2022-11-07T03:15:39.661Z,2.80
2022-11-07T03:16:39.632Z,3.10
2022-11-07T03:17:39.639Z,2.70
2022-11-07T03:18:39.628Z,2.60
2022-11-07T03:19:39.678Z,2.80
2022-11-07T03:20:39.609Z,3.00
2022-11-07T03:21:39.609Z,2.80
2022-11-07T03:22:39.573Z,2.50
2022-11-07T03:23:39.606Z,2.80
2022-11-07T03:24:39.595Z,3.10
2022-11-07T03:25:39.544Z,2.80
2022-11-07T03:26:39.547Z,2.60
2022-11-07T03:27:39.506Z,2.60
2022-11-07T03:28:39.514Z,2.90
2022-11-07T03:29:39.515Z,2.90
2022-11-07T03:30:39.519Z,2.60
2022-11-07T03:31:39.507Z,2.50
2022-11-07T03:32:39.470Z,2.80
2022-11-07T03:33:40.198Z,2.90
2022-11-07T03:34:40.208Z,2.60
2022-11-07T03:35:39.476Z,2.60
2022-11-07T03:36:39.419Z,2.70
2022-11-07T03:37:39.422Z,2.80
2022-11-07T03:38:39.381Z,2.60
2022-11-07T03:39:39.406Z,2.50
2022-11-07T03:40:39.374Z,2.70
2022-11-07T03:41:39.365Z,3.00
2022-11-07T03:42:39.352Z,2.70
2022-11-07T03:43:39.357Z,2.40
2022-11-07T03:44:39.370Z,2.60
2022-11-07T03:45:39.327Z,2.90
2022-11-07T03:46:39.320Z,2.60
2022-11-07T03:47:39.305Z,2.50
2022-11-07T03:48:39.271Z,2.50
2022-11-07T03:49:39.306Z,2.90
2022-11-07T03:50:39.295Z,2.70
2022-11-07T03:51:39.252Z,2.30
2022-11-07T03:52:39.245Z,2.50
2022-11-07T03:53:39.257Z,2.70
2022-11-07T03:54:39.270Z,2.80
2022-11-07T03:55:39.294Z,2.50
2022-11-07T03:56:39.223Z,2.60
2022-11-07T03:57:39.216Z,2.90
2022-11-07T03:58:39.186Z,2.80
2022-11-07T03:59:39.163Z,2.50
2022-11-07T04:00:39.196Z,2.70
2022-11-07T04:01:39.283Z,2.80
2022-11-07T04:02:39.317Z,2.80
2022-11-07T04:03:39.110Z,2.40
2022-11-07T04:04:39.125Z,2.60
2022-11-07T04:05:39.126Z,2.80
2022-11-07T04:06:39.113Z,2.80
2022-11-07T04:07:39.140Z,2.50
2022-11-07T04:08:39.074Z,2.50
2022-11-07T04:09:39.072Z,2.90
2022-11-07T04:10:39.080Z,2.80
2022-11-07T04:11:39.039Z,2.60
2022-11-07T04:12:39.033Z,2.70
2022-11-07T04:13:39.032Z,2.90
2022-11-07T04:14:39.030Z,3.00
2022-11-07T04:15:38.987Z,2.70
2022-11-07T04:16:39.005Z,2.60
2022-11-07T04:17:39.032Z,2.70
2022-11-07T04:18:38.938Z,2.80
2022-11-07T04:19:38.962Z,2.70
2022-11-07T04:20:38.961Z,2.70
2022-11-07T04:21:38.967Z,2.80
2022-11-07T04:22:38.932Z,2.70
2022-11-07T04:23:38.889Z,2.70
2022-11-07T04:24:44.469Z,2.60
2022-11-07T04:25:39.878Z,2.60
2022-11-07T04:26:38.884Z,2.90
2022-11-07T04:27:38.884Z,2.60
2022-11-07T04:28:38.848Z,2.60
2022-11-07T04:29:38.842Z,2.80
2022-11-07T04:30:39.276Z,3.10
2022-11-07T04:31:38.808Z,2.80
2022-11-07T04:32:38.822Z,2.50
2022-11-07T04:33:38.822Z,2.60
2022-11-07T04:34:38.816Z,2.80
2022-11-07T04:35:38.780Z,2.70
2022-11-07T04:36:38.745Z,2.50
2022-11-07T04:37:38.751Z,2.70
2022-11-07T04:38:38.769Z,2.70
2022-11-07T04:39:38.731Z,2.80
2022-11-07T04:40:38.702Z,2.60
2022-11-07T04:41:38.710Z,2.60
2022-11-07T04:42:38.687Z,2.80
2022-11-07T04:43:38.700Z,2.80
2022-11-07T04:44:38.676Z,2.50
2022-11-07T04:45:38.671Z,2.70
2022-11-07T04:46:38.674Z,2.80
2022-11-07T04:47:40.592Z,2.90
2022-11-07T04:48:38.639Z,2.60
2022-11-07T04:49:38.643Z,2.50
2022-11-07T04:50:38.643Z,2.70
2022-11-07T04:51:38.626Z,2.90
2022-11-07T04:52:38.614Z,2.70
2022-11-07T04:53:38.648Z,2.80
2022-11-07T04:54:38.654Z,2.70
2022-11-07T04:55:38.559Z,2.90
2022-11-07T04:56:38.566Z,2.60
2022-11-07T04:57:38.551Z,2.60
2022-11-07T04:58:38.496Z,2.80
2022-11-07T04:59:38.513Z,3.00
2022-11-07T05:00:38.482Z,2.90
2022-11-07T05:01:38.510Z,2.60
2022-11-07T05:02:38.520Z,2.80
2022-11-07T05:03:41.887Z,3.10
2022-11-07T05:04:38.434Z,3.00
2022-11-07T05:05:38.448Z,2.80
2022-11-07T05:06:38.478Z,3.00
2022-11-07T05:07:38.418Z,3.10
2022-11-07T05:08:38.414Z,3.00
2022-11-07T05:09:38.397Z,2.80
2022-11-07T05:10:38.374Z,2.90
2022-11-07T05:11:38.387Z,3.10
2022-11-07T05:12:38.367Z,3.00
2022-11-07T05:13:38.388Z,2.80
2022-11-07T05:14:38.336Z,2.90
2022-11-07T05:15:38.345Z,3.10
2022-11-07T05:16:38.316Z,3.20
2022-11-07T05:17:38.337Z,2.90
2022-11-07T05:18:38.409Z,2.90
2022-11-07T05:19:38.335Z,3.00
2022-11-07T05:20:38.293Z,3.30
2022-11-07T05:21:38.253Z,2.90
2022-11-07T05:22:38.264Z,2.80
2022-11-07T05:23:38.250Z,3.00
2022-11-07T05:24:38.234Z,3.10
2022-11-07T05:25:38.225Z,2.50
2022-11-07T05:26:38.220Z,2.60
2022-11-07T05:27:38.192Z,2.80
2022-11-07T05:28:39.789Z,2.90
2022-11-07T05:29:38.215Z,2.90
2022-11-07T05:30:38.166Z,2.70
2022-11-07T05:31:38.141Z,2.80
2022-11-07T05:32:38.181Z,3.00
2022-11-07T05:33:38.121Z,3.00
2022-11-07T05:34:38.134Z,2.70
2022-11-07T05:35:38.129Z,2.80
2022-11-07T05:36:38.095Z,2.90
2022-11-07T05:37:38.084Z,3.10
2022-11-07T05:38:38.102Z,2.80
2022-11-07T05:39:38.076Z,2.80
2022-11-07T05:40:38.066Z,2.90
2022-11-07T05:41:38.023Z,3.00
2022-11-07T05:42:38.076Z,2.80
2022-11-07T05:43:38.001Z,2.70
2022-11-07T05:44:38.033Z,2.90
2022-11-07T05:45:37.993Z,3.10
2022-11-07T05:46:38.008Z,2.60
2022-11-07T05:47:38.014Z,2.50
2022-11-07T05:48:37.956Z,2.80
2022-11-07T05:49:37.985Z,2.90
2022-11-07T05:50:37.934Z,2.70
2022-11-07T05:51:37.938Z,2.60
2022-11-07T05:52:37.923Z,2.70
2022-11-07T05:53:38.001Z,2.90
2022-11-07T05:54:37.889Z,2.60
2022-11-07T05:55:37.909Z,2.50
2022-11-07T05:56:37.883Z,2.60
2022-11-07T05:57:37.850Z,2.80
2022-11-07T05:58:37.852Z,2.70
2022-11-07T05:59:37.843Z,2.50
2022-11-07T06:00:37.853Z,2.50
2022-11-07T06:01:37.947Z,2.80
2022-11-07T06:02:37.908Z,2.80
2022-11-07T06:03:37.812Z,2.60
2022-11-07T06:04:37.778Z,2.60
2022-11-07T06:05:37.802Z,2.70
2022-11-07T06:06:37.768Z,2.70
2022-11-07T06:11:20.765Z,2.40
2022-11-07T06:12:20.684Z,2.10
2022-11-07T06:13:20.693Z,2.30
2022-11-07T06:14:20.683Z,2.20
2022-11-07T06:15:20.670Z,2.20
2022-11-07T06:16:20.675Z,2.10
2022-11-07T06:17:20.676Z,2.20
2022-11-07T06:18:20.668Z,2.20
2022-11-07T06:19:20.618Z,2.10
2022-11-07T06:20:20.618Z,1.90
2022-11-07T06:21:20.592Z,2.30
2022-11-07T06:22:20.598Z,2.40
2022-11-07T06:23:20.663Z,2.00
2022-11-07T06:24:20.577Z,2.00
2022-11-07T06:25:20.556Z,2.00
2022-11-07T06:26:20.551Z,2.30
2022-11-07T06:27:20.537Z,2.40
2022-11-07T06:28:20.538Z,2.20
2022-11-07T06:29:20.507Z,2.20
2022-11-07T06:30:20.490Z,2.10
2022-11-07T06:31:20.487Z,2.60
2022-11-07T06:32:20.510Z,2.30
2022-11-07T06:33:20.735Z,2.10
2022-11-07T06:34:20.468Z,2.40
2022-11-07T06:35:20.459Z,2.60
2022-11-07T06:36:20.435Z,2.30
2022-11-07T06:37:20.424Z,2.10
2022-11-07T06:38:20.446Z,2.20
2022-11-07T06:39:20.407Z,2.60
2022-11-07T06:40:20.411Z,2.50
2022-11-07T06:41:20.383Z,2.10
2022-11-07T06:42:20.362Z,2.20
2022-11-07T06:43:20.832Z,2.60
2022-11-07T06:44:20.361Z,2.30
2022-11-07T06:45:20.353Z,2.00
2022-11-07T06:46:20.365Z,2.30
2022-11-07T06:47:20.314Z,2.60
2022-11-07T06:48:20.315Z,2.40
2022-11-07T06:49:20.314Z,2.20
2022-11-07T06:50:20.294Z,2.10
2022-11-07T06:51:20.263Z,2.50
2022-11-07T06:52:20.249Z,2.30
2022-11-07T06:53:20.386Z,2.10
2022-11-07T06:54:20.274Z,2.20
2022-11-07T06:55:20.234Z,2.30
2022-11-07T06:56:20.202Z,2.60
2022-11-07T06:57:20.208Z,2.40
2022-11-07T06:58:20.199Z,2.20
2022-11-07T06:59:20.172Z,2.50
2022-11-07T07:00:20.191Z,2.70
2022-11-07T07:01:20.211Z,2.10
2022-11-07T07:02:37.308Z,2.30
2022-11-07T07:03:21.192Z,2.40
2022-11-07T07:04:20.120Z,2.50
2022-11-07T07:05:21.350Z,2.20
2022-11-07T07:06:20.138Z,2.20
2022-11-07T07:07:20.093Z,2.40
2022-11-07T07:08:20.077Z,2.60
2022-11-07T07:09:20.071Z,2.30
2022-11-07T07:10:20.060Z,2.10
2022-11-07T07:11:20.078Z,2.10
2022-11-07T07:12:20.053Z,2.50
2022-11-07T07:13:20.042Z,2.40
2022-11-07T07:14:20.023Z,2.00
2022-11-07T07:15:20.033Z,2.20
2022-11-07T07:16:19.990Z,2.50
2022-11-07T07:17:19.987Z,2.40
2022-11-07T07:18:19.983Z,2.20
2022-11-07T07:19:19.989Z,2.50
2022-11-07T07:20:19.963Z,2.70
2022-11-07T07:21:19.944Z,2.50
2022-11-07T07:22:19.946Z,2.40
2022-11-07T07:23:20.291Z,2.30
2022-11-07T07:24:19.898Z,2.60
2022-11-07T07:25:19.887Z,2.60
2022-11-07T07:26:19.892Z,2.40
2022-11-07T07:27:19.887Z,2.50
2022-11-07T07:28:19.882Z,2.60
2022-11-07T07:29:19.849Z,2.60
2022-11-07T07:30:19.841Z,2.30
2022-11-07T07:31:19.840Z,2.50
2022-11-07T07:32:19.821Z,2.60
2022-11-07T07:33:19.819Z,2.70
2022-11-07T07:34:19.811Z,2.50
2022-11-07T07:35:19.780Z,2.60
2022-11-07T07:36:21.096Z,2.50
2022-11-07T07:37:19.800Z,2.60
2022-11-07T07:38:19.761Z,2.20
2022-11-07T07:39:19.737Z,2.40
2022-11-07T07:40:19.751Z,2.50
2022-11-07T07:41:19.713Z,2.30
2022-11-07T07:42:19.706Z,2.10
2022-11-07T07:43:19.782Z,2.10
2022-11-07T07:44:19.677Z,2.20
2022-11-07T07:45:19.689Z,2.50
2022-11-07T07:46:19.657Z,2.30
2022-11-07T07:47:19.650Z,2.20
2022-11-07T07:48:19.636Z,2.20
2022-11-07T07:49:19.628Z,2.40
2022-11-07T07:50:19.631Z,2.30
2022-11-07T07:51:19.609Z,2.00
2022-11-07T07:52:19.586Z,2.10
2022-11-07T07:53:19.623Z,2.20
2022-11-07T07:54:19.598Z,2.60
2022-11-07T07:55:19.569Z,2.10
2022-11-07T07:56:19.560Z,2.00
2022-11-07T07:57:19.556Z,2.40
2022-11-07T07:58:19.527Z,2.50
2022-11-07T07:59:19.542Z,2.50
2022-11-07T08:00:19.528Z,2.10
2022-11-07T08:01:19.534Z,2.20
2022-11-07T08:02:19.621Z,2.50
2022-11-07T08:03:19.726Z,2.50
2022-11-07T08:04:19.499Z,2.10
2022-11-07T08:05:19.454Z,2.20
2022-11-07T08:06:19.468Z,2.20
2022-11-07T08:07:19.448Z,2.30
2022-11-07T08:08:19.437Z,2.20
2022-11-07T08:09:19.421Z,2.20
2022-11-07T08:11:20.375Z,2.50
2022-11-07T08:12:19.400Z,2.00
2022-11-07T08:13:19.607Z,2.10
2022-11-07T08:14:19.418Z,2.30
2022-11-07T08:15:19.357Z,2.50
2022-11-07T08:16:19.340Z,2.10
2022-11-07T08:17:19.314Z,2.00
2022-11-07T08:18:19.314Z,2.20
2022-11-07T08:19:19.307Z,2.40
2022-11-07T08:20:19.306Z,2.20
2022-11-07T08:21:19.295Z,2.10
2022-11-07T08:22:19.286Z,2.20
2022-11-07T08:23:19.816Z,2.40
2022-11-07T08:24:19.233Z,2.10
2022-11-07T08:25:19.255Z,2.10
2022-11-07T08:26:19.232Z,2.20
2022-11-07T08:27:19.202Z,2.30
2022-11-07T08:28:19.209Z,2.10
2022-11-07T08:29:19.202Z,2.00
2022-11-07T08:30:19.193Z,2.20
2022-11-07T08:31:19.193Z,2.50
2022-11-07T08:32:19.172Z,2.20
2022-11-07T08:33:19.560Z,2.00
2022-11-07T08:34:19.210Z,2.10
2022-11-07T08:35:19.134Z,2.50
2022-11-07T08:36:19.110Z,2.40
2022-11-07T08:37:19.104Z,2.10
2022-11-07T08:38:19.097Z,2.30
2022-11-07T08:39:19.080Z,2.40
2022-11-07T08:40:19.063Z,2.60
2022-11-07T08:41:22.148Z,2.20
2022-11-07T08:42:19.064Z,2.10
2022-11-07T08:43:19.322Z,2.20
2022-11-07T08:44:19.024Z,2.60
2022-11-07T08:45:19.024Z,2.30
2022-11-07T08:46:19.026Z,1.90
2022-11-07T08:47:19.003Z,2.40
2022-11-07T08:48:19.003Z,2.60
2022-11-07T08:49:19.050Z,2.30
2022-11-07T08:50:18.956Z,2.10
2022-11-07T08:51:18.981Z,2.30
2022-11-07T08:52:18.964Z,2.20
2022-11-07T08:53:19.127Z,2.20
2022-11-07T08:54:18.929Z,2.10
2022-11-07T08:55:18.922Z,2.10
2022-11-07T08:56:18.910Z,2.50
2022-11-07T08:57:18.898Z,2.60
2022-11-07T08:58:18.890Z,2.30
2022-11-07T08:59:18.848Z,2.20
2022-11-07T09:00:18.858Z,2.40
2022-11-07T09:01:18.902Z,2.50
2022-11-07T09:04:19.878Z,2.30
2022-11-07T09:05:18.791Z,2.70
2022-11-07T09:06:18.789Z,2.30
2022-11-07T09:07:18.770Z,2.20
2022-11-07T09:08:18.778Z,2.60
2022-11-07T09:09:18.771Z,2.70
2022-11-07T09:10:18.786Z,2.60
2022-11-07T09:11:18.818Z,2.30
2022-11-07T09:12:18.748Z,2.60
2022-11-07T09:13:19.151Z,2.80
2022-11-07T09:14:18.729Z,2.60
2022-11-07T09:15:18.759Z,2.50
2022-11-07T09:16:18.709Z,2.50
2022-11-07T09:17:18.668Z,2.70
2022-11-07T09:18:18.646Z,2.80
2022-11-07T09:19:18.661Z,2.30
2022-11-07T09:20:18.629Z,2.40
2022-11-07T09:21:22.359Z,2.80
2022-11-07T09:22:18.621Z,2.90
2022-11-07T09:23:19.089Z,2.70
2022-11-07T09:24:18.577Z,2.60
2022-11-07T09:25:18.574Z,2.80
2022-11-07T09:26:18.580Z,3.00
2022-11-07T09:27:18.558Z,2.60
2022-11-07T09:28:18.539Z,2.60
2022-11-07T09:29:18.526Z,2.70
2022-11-07T09:30:18.529Z,2.80
2022-11-07T09:31:18.506Z,2.60
2022-11-07T09:32:43.411Z,2.70
2022-11-07T09:33:19.522Z,2.60
2022-11-07T09:34:18.514Z,2.50
2022-11-07T09:35:18.481Z,2.50
2022-11-07T09:36:18.467Z,2.50
2022-11-07T09:37:18.459Z,2.10
2022-11-07T09:38:18.444Z,2.20
2022-11-07T09:39:18.443Z,2.30
2022-11-07T09:40:18.415Z,2.40
2022-11-07T09:41:18.429Z,2.10
2022-11-07T09:42:18.386Z,2.10
2022-11-07T09:43:18.732Z,2.10
2022-11-07T09:44:18.367Z,2.60
2022-11-07T09:45:18.369Z,2.30
2022-11-07T09:46:18.358Z,2.30
2022-11-07T09:47:18.349Z,2.60
2022-11-07T09:48:18.337Z,2.90
2022-11-07T09:49:18.338Z,2.80
2022-11-07T09:50:18.299Z,2.60
2022-11-07T09:51:18.317Z,2.80
2022-11-07T09:52:18.294Z,3.00
2022-11-07T09:53:18.425Z,2.90
2022-11-07T09:54:18.278Z,2.60
2022-11-07T09:55:18.267Z,2.70
2022-11-07T09:56:18.233Z,3.00
2022-11-07T09:57:18.246Z,2.90
2022-11-07T09:58:18.229Z,2.60
2022-11-07T09:59:18.213Z,2.70
2022-11-07T10:00:18.243Z,2.70
2022-11-07T10:01:18.258Z,2.80
2022-11-07T10:02:18.241Z,2.50
2022-11-07T10:03:18.569Z,2.30
2022-11-07T10:04:24.609Z,2.60
2022-11-07T10:05:19.166Z,2.60
2022-11-07T10:06:23.083Z,2.20
2022-11-07T10:07:19.127Z,2.10
2022-11-07T10:08:18.115Z,2.20
2022-11-07T10:09:18.126Z,2.50
2022-11-07T10:10:18.092Z,2.40
2022-11-07T10:11:18.074Z,2.20
2022-11-07T10:12:18.064Z,2.30
2022-11-07T10:13:18.354Z,2.60
2022-11-07T10:14:18.085Z,2.40
2022-11-07T10:15:18.054Z,2.10
2022-11-07T10:16:18.035Z,2.10
2022-11-07T10:17:18.017Z,2.20
2022-11-07T10:18:18.009Z,2.30
2022-11-07T10:19:17.999Z,2.50
2022-11-07T10:20:22.017Z,2.00
2022-11-07T10:22:18.952Z,2.40
2022-11-07T10:23:18.351Z,2.50
2022-11-07T10:24:17.920Z,2.20
2022-11-07T10:25:17.935Z,2.10
2022-11-07T10:26:17.914Z,2.10
2022-11-07T10:27:17.925Z,2.30
2022-11-07T10:28:17.897Z,2.20
2022-11-07T10:29:17.903Z,2.20
2022-11-07T10:30:17.868Z,2.20
2022-11-07T10:31:17.850Z,2.40
2022-11-07T10:32:17.853Z,2.30
2022-11-07T10:33:18.109Z,2.40
2022-11-07T10:34:17.809Z,2.20
2022-11-07T10:35:17.806Z,2.30
2022-11-07T10:36:17.803Z,2.60
2022-11-07T10:37:17.799Z,2.70
2022-11-07T10:38:17.766Z,2.20
2022-11-07T10:39:17.759Z,2.40
2022-11-07T10:40:18.066Z,2.60
2022-11-07T10:41:17.933Z,2.60
2022-11-07T10:42:17.732Z,2.30
2022-11-07T10:43:18.159Z,2.20
2022-11-07T10:44:17.945Z,2.20
2022-11-07T10:45:17.698Z,2.50
2022-11-07T10:46:17.675Z,2.70
2022-11-07T10:47:17.822Z,2.20
2022-11-07T10:48:18.011Z,2.10
2022-11-07T10:49:17.714Z,2.40
2022-11-07T10:50:17.680Z,2.60
2022-11-07T10:51:17.671Z,2.20
2022-11-07T10:52:17.653Z,2.20
2022-11-07T10:53:17.599Z,2.50
2022-11-07T10:54:21.724Z,2.60
2022-11-07T10:55:17.631Z,2.60
2022-11-07T10:56:17.583Z,2.50
2022-11-07T10:57:17.570Z,2.10
2022-11-07T10:58:17.816Z,2.40
2022-11-07T10:59:17.551Z,2.50
2022-11-07T11:00:17.573Z,2.60
2022-11-07T11:01:17.565Z,2.10
2022-11-07T11:02:17.578Z,2.00
2022-11-07T11:03:17.526Z,2.20
2022-11-07T11:04:17.628Z,2.60
2022-11-07T11:05:17.465Z,2.60
2022-11-07T11:06:17.487Z,2.20
2022-11-07T11:07:17.470Z,2.40
2022-11-07T11:08:18.029Z,2.50
2022-11-07T11:09:17.440Z,2.70
2022-11-07T11:10:17.416Z,2.50
2022-11-07T11:11:17.423Z,2.20
2022-11-07T11:12:17.405Z,2.40
2022-11-07T11:13:17.437Z,2.70
2022-11-07T11:14:17.370Z,2.70
2022-11-07T11:15:17.356Z,2.50
2022-11-07T11:16:17.357Z,2.40
2022-11-07T11:17:17.363Z,2.60
2022-11-07T11:18:18.044Z,2.70
2022-11-07T11:19:17.317Z,2.70
2022-11-07T11:20:17.314Z,2.70
2022-11-07T11:21:17.284Z,2.50
2022-11-07T11:22:17.292Z,2.70
2022-11-07T11:23:17.705Z,2.90
2022-11-07T11:24:17.311Z,3.30
2022-11-07T11:25:17.257Z,3.10
2022-11-07T11:26:17.247Z,2.90
2022-11-07T11:27:17.219Z,2.90
2022-11-07T11:28:17.603Z,3.10
2022-11-07T11:29:17.416Z,3.30
2022-11-07T11:30:17.236Z,3.10
2022-11-07T11:31:17.175Z,2.80
2022-11-07T11:32:17.180Z,3.20
2022-11-07T11:33:18.536Z,3.20
2022-11-07T11:34:20.355Z,3.60
2022-11-07T11:35:17.372Z,3.20
2022-11-07T11:36:17.124Z,3.10
2022-11-07T11:37:17.243Z,3.50
2022-11-07T11:38:17.155Z,3.50
2022-11-07T11:39:17.096Z,3.40
2022-11-07T11:40:17.095Z,3.20
2022-11-07T11:41:17.064Z,3.50
2022-11-07T11:42:17.103Z,3.50
2022-11-07T11:43:17.421Z,3.70
2022-11-07T11:44:17.051Z,3.80
2022-11-07T11:45:17.025Z,3.30
2022-11-07T11:46:17.024Z,3.60
2022-11-07T11:47:17.005Z,3.90
2022-11-07T11:48:17.030Z,4.10
2022-11-07T11:49:16.991Z,3.70
2022-11-07T11:50:16.996Z,3.60
2022-11-07T11:51:17.007Z,3.60
2022-11-07T11:52:16.957Z,4.00
2022-11-07T11:53:17.470Z,4.20
2022-11-07T11:54:16.938Z,3.50
2022-11-07T11:55:17.361Z,3.30
2022-11-07T11:56:16.890Z,3.40
2022-11-07T11:57:17.009Z,3.70
2022-11-07T11:58:16.879Z,3.60
2022-11-07T11:59:16.885Z,3.20
2022-11-07T12:00:16.867Z,3.00
2022-11-07T12:01:16.901Z,3.30
2022-11-07T12:02:16.883Z,3.50
2022-11-07T12:03:17.237Z,3.70
2022-11-07T12:04:16.833Z,3.70
2022-11-07T12:05:16.878Z,3.50
2022-11-07T12:06:16.870Z,3.60
2022-11-07T12:07:16.797Z,3.60
2022-11-07T12:08:16.856Z,3.70
2022-11-07T12:09:18.290Z,3.60
2022-11-07T12:10:16.750Z,3.60
2022-11-07T12:11:16.862Z,3.30
2022-11-07T12:12:16.733Z,3.80
2022-11-07T12:13:17.259Z,3.40
2022-11-07T12:14:16.715Z,3.60
2022-11-07T12:15:16.723Z,3.20
2022-11-07T12:16:16.692Z,3.10
2022-11-07T12:17:16.666Z,3.30
2022-11-07T12:18:16.678Z,3.10
2022-11-07T12:19:16.651Z,3.10
2022-11-07T12:20:16.742Z,3.00
2022-11-07T12:21:16.798Z,3.00
2022-11-07T12:22:16.622Z,3.10
2022-11-07T12:23:16.993Z,3.40
2022-11-07T12:24:16.802Z,3.40
2022-11-07T12:25:16.592Z,2.70
2022-11-07T12:26:16.570Z,2.90
2022-11-07T12:27:16.663Z,3.40
2022-11-07T12:28:16.555Z,3.10
2022-11-07T12:29:16.614Z,3.10
2022-11-07T12:30:16.535Z,3.30
2022-11-07T12:31:16.539Z,3.30
2022-11-07T12:32:16.507Z,3.40
2022-11-07T12:33:16.760Z,3.00
2022-11-07T12:34:16.505Z,3.10
2022-11-07T12:35:16.532Z,3.20
2022-11-07T12:36:16.472Z,3.40
2022-11-07T12:37:16.456Z,3.80
2022-11-07T12:38:16.438Z,3.50
2022-11-07T12:39:16.428Z,3.50
2022-11-07T12:40:16.407Z,3.50
2022-11-07T12:41:16.437Z,3.60
2022-11-07T12:42:16.421Z,3.50
2022-11-07T12:43:16.774Z,3.90
2022-11-07T12:44:16.357Z,4.80
2022-11-07T12:45:16.380Z,4.70
2022-11-07T12:46:16.350Z,4.80
2022-11-07T12:47:16.357Z,4.80
2022-11-07T12:48:16.396Z,4.00
2022-11-07T12:49:16.319Z,3.40
2022-11-07T12:50:16.310Z,3.50
2022-11-07T12:51:16.286Z,3.50
2022-11-07T12:52:16.298Z,3.70
2022-11-07T12:53:16.676Z,4.30
2022-11-07T12:54:16.726Z,6.00
2022-11-07T12:55:16.259Z,5.50
2022-11-07T12:56:16.272Z,5.30
2022-11-07T12:57:16.261Z,4.90
2022-11-07T12:58:16.224Z,4.40
2022-11-07T12:59:16.207Z,4.60
2022-11-07T13:00:16.196Z,3.90
2022-11-07T13:01:16.218Z,3.60
2022-11-07T13:02:16.308Z,3.40
2022-11-07T13:03:16.430Z,3.20
2022-11-07T13:04:16.148Z,3.50
2022-11-07T13:05:16.151Z,4.00
2022-11-07T13:06:16.141Z,3.60
2022-11-07T13:07:16.119Z,3.50
2022-11-07T13:08:16.116Z,3.60
2022-11-07T13:09:16.109Z,3.40
2022-11-07T13:10:16.074Z,3.40
2022-11-07T13:11:16.066Z,3.10
2022-11-07T13:12:16.078Z,3.30
2022-11-07T13:13:16.452Z,3.40
2022-11-07T13:14:19.627Z,2.80
2022-11-07T13:15:17.035Z,2.70
2022-11-07T13:16:16.332Z,2.90
2022-11-07T13:17:16.018Z,3.00
2022-11-07T13:18:15.986Z,3.00
2022-11-07T13:19:16.017Z,2.90
2022-11-07T13:20:16.094Z,2.60
2022-11-07T13:21:15.954Z,2.50
2022-11-07T13:22:15.952Z,2.60
2022-11-07T13:23:16.330Z,2.70
2022-11-07T13:24:15.932Z,2.50
2022-11-07T13:25:16.974Z,2.60
2022-11-07T13:26:45.011Z,2.00